<?xml version="1.0" encoding="UTF-8" standalone="no" ?>
<gpx xmlns="http://www.topografix.com/GPX/1/1" xmlns:xsi="http://www.w3.org/2001/XMLSchema-instance" xsi:schemaLocation="http://www.topografix.com/GPX/1/1 http://www.topografix.com/GPX/1/1/gpx.xsd" version="1.1" creator="VisuGPX - https://www.visugpx.com">
  <metadata>
    <name>cheval-montarcher</name>
  </metadata>
  <trk>
    <name><![CDATA[cheval-montarcher]]></name>
    <extensions>
      <line xmlns="http://www.topografix.com/GPX/gpx_style/0/2">
        <color>0000FF</color>
        <opacity>0.5</opacity>
        <width>7</width>
        <dasharray>14</dasharray>
          <extensions>
            <sens>1</sens>
          </extensions>
      </line>
    </extensions>
    <trkseg>
      <trkpt lat="45.45947" lon="3.99537">
        <ele>1141.7</ele>
        <time>2022-05-17T10:33:18Z</time>
      </trkpt>
      <trkpt lat="45.45951" lon="3.99522">
        <ele>1140.8</ele>
      </trkpt>
      <trkpt lat="45.45931" lon="3.99483">
        <ele>1138</ele>
        <time>2022-05-17T10:33:27Z</time>
      </trkpt>
      <trkpt lat="45.45896" lon="3.99453">
        <ele>1136</ele>
        <time>2022-05-17T10:33:36Z</time>
      </trkpt>
      <trkpt lat="45.4587" lon="3.99449">
        <ele>1147.8</ele>
      </trkpt>
      <trkpt lat="45.45851" lon="3.99451">
        <ele>1135</ele>
        <time>2022-05-17T10:33:47Z</time>
      </trkpt>
      <trkpt lat="45.4584" lon="3.99463">
        <ele>1136</ele>
        <time>2022-05-17T10:33:50Z</time>
      </trkpt>
      <trkpt lat="45.4583" lon="3.99475">
        <ele>1136</ele>
        <time>2022-05-17T10:33:53Z</time>
      </trkpt>
      <trkpt lat="45.45832" lon="3.99487">
        <ele>1138</ele>
        <time>2022-05-17T10:33:55Z</time>
      </trkpt>
      <trkpt lat="45.45838" lon="3.99503">
        <ele>1140</ele>
        <time>2022-05-17T10:33:58Z</time>
      </trkpt>
      <trkpt lat="45.4584" lon="3.99523">
        <ele>1139</ele>
        <time>2022-05-17T10:34:02Z</time>
      </trkpt>
      <trkpt lat="45.45843" lon="3.9954">
        <ele>1138</ele>
        <time>2022-05-17T10:34:04Z</time>
      </trkpt>
      <trkpt lat="45.45843" lon="3.99558">
        <ele>1136</ele>
        <time>2022-05-17T10:34:07Z</time>
      </trkpt>
      <trkpt lat="45.4584" lon="3.99598">
        <ele>1138.2</ele>
      </trkpt>
      <trkpt lat="45.45826" lon="3.99581">
        <ele>1132</ele>
        <time>2022-05-17T10:34:47Z</time>
      </trkpt>
      <trkpt lat="45.45809" lon="3.9956">
        <ele>1129</ele>
        <time>2022-05-17T10:34:52Z</time>
      </trkpt>
      <trkpt lat="45.45801" lon="3.99538">
        <ele>1135.9</ele>
        <time>2022-05-17T10:34:56Z</time>
      </trkpt>
      <trkpt lat="45.45777" lon="3.99499">
        <ele>1125</ele>
        <time>2022-05-17T10:35:05Z</time>
      </trkpt>
      <trkpt lat="45.45761" lon="3.99469">
        <ele>1119</ele>
        <time>2022-05-17T10:35:11Z</time>
      </trkpt>
      <trkpt lat="45.45749" lon="3.99438">
        <ele>1115</ele>
        <time>2022-05-17T10:35:17Z</time>
      </trkpt>
      <trkpt lat="45.45749" lon="3.99415">
        <ele>1114</ele>
        <time>2022-05-17T10:35:21Z</time>
      </trkpt>
      <trkpt lat="45.45743" lon="3.9941">
        <ele>1112</ele>
        <time>2022-05-17T10:35:22Z</time>
      </trkpt>
      <trkpt lat="45.45756" lon="3.99363">
        <ele>1109</ele>
        <time>2022-05-17T10:35:31Z</time>
      </trkpt>
      <trkpt lat="45.45776" lon="3.99324">
        <ele>1107</ele>
        <time>2022-05-17T10:35:38Z</time>
      </trkpt>
      <trkpt lat="45.45791" lon="3.99294">
        <ele>1105.4</ele>
        <time>2022-05-17T10:35:45Z</time>
      </trkpt>
      <trkpt lat="45.45811" lon="3.99266">
        <ele>1103</ele>
        <time>2022-05-17T10:35:51Z</time>
      </trkpt>
      <trkpt lat="45.45833" lon="3.99243">
        <ele>1104</ele>
        <time>2022-05-17T10:35:57Z</time>
      </trkpt>
      <trkpt lat="45.45864" lon="3.99201">
        <ele>1097</ele>
        <time>2022-05-17T10:36:07Z</time>
      </trkpt>
      <trkpt lat="45.45908" lon="3.99154">
        <ele>1088.5</ele>
        <time>2022-05-17T10:36:20Z</time>
      </trkpt>
      <trkpt lat="45.45963" lon="3.99141">
        <ele>1085</ele>
        <time>2022-05-17T10:36:34Z</time>
      </trkpt>
      <trkpt lat="45.4601" lon="3.99136">
        <ele>1080</ele>
        <time>2022-05-17T10:36:45Z</time>
      </trkpt>
      <trkpt lat="45.46043" lon="3.99126">
        <ele>1072.8</ele>
        <time>2022-05-17T10:36:53Z</time>
      </trkpt>
      <trkpt lat="45.46079" lon="3.99114">
        <ele>1071</ele>
        <time>2022-05-17T10:37:01Z</time>
      </trkpt>
      <trkpt lat="45.46123" lon="3.99115">
        <ele>1071</ele>
        <time>2022-05-17T10:37:12Z</time>
      </trkpt>
      <trkpt lat="45.46167" lon="3.99106">
        <ele>1071</ele>
        <time>2022-05-17T10:37:22Z</time>
      </trkpt>
      <trkpt lat="45.46203" lon="3.99067">
        <ele>1070</ele>
        <time>2022-05-17T10:37:32Z</time>
      </trkpt>
      <trkpt lat="45.46233" lon="3.99009">
        <ele>1070</ele>
        <time>2022-05-17T10:37:44Z</time>
      </trkpt>
      <trkpt lat="45.46255" lon="3.98953">
        <ele>1071</ele>
        <time>2022-05-17T10:37:55Z</time>
      </trkpt>
      <trkpt lat="45.46268" lon="3.98918">
        <ele>1071</ele>
        <time>2022-05-17T10:38:01Z</time>
      </trkpt>
      <trkpt lat="45.46283" lon="3.98911">
        <ele>1071.5</ele>
        <time>2022-05-17T10:38:07Z</time>
      </trkpt>
      <trkpt lat="45.46322" lon="3.98917">
        <ele>1075</ele>
        <time>2022-05-17T10:38:16Z</time>
      </trkpt>
      <trkpt lat="45.46357" lon="3.98937">
        <ele>1077</ele>
        <time>2022-05-17T10:38:25Z</time>
      </trkpt>
      <trkpt lat="45.46382" lon="3.98962">
        <ele>1079</ele>
        <time>2022-05-17T10:38:32Z</time>
      </trkpt>
      <trkpt lat="45.46404" lon="3.98987">
        <ele>1082.2</ele>
        <time>2022-05-17T10:38:38Z</time>
      </trkpt>
      <trkpt lat="45.46435" lon="3.9901">
        <ele>1080</ele>
        <time>2022-05-17T10:38:47Z</time>
      </trkpt>
      <trkpt lat="45.46472" lon="3.99044">
        <ele>1082</ele>
        <time>2022-05-17T10:38:56Z</time>
      </trkpt>
      <trkpt lat="45.46598" lon="3.9909">
        <ele>1083</ele>
        <time>2022-05-17T10:39:27Z</time>
      </trkpt>
      <trkpt lat="45.46713" lon="3.99126">
        <ele>1081.2</ele>
        <time>2022-05-17T10:39:50Z</time>
      </trkpt>
      <trkpt lat="45.4674" lon="3.99121">
        <ele>1084</ele>
        <time>2022-05-17T10:40:00Z</time>
      </trkpt>
      <trkpt lat="45.46783" lon="3.99084">
        <ele>1087.4</ele>
      </trkpt>
      <trkpt lat="45.46823" lon="3.99028">
        <ele>1089</ele>
        <time>2022-05-17T10:40:25Z</time>
      </trkpt>
      <trkpt lat="45.46855" lon="3.98967">
        <ele>1089</ele>
        <time>2022-05-17T10:40:38Z</time>
      </trkpt>
      <trkpt lat="45.46857" lon="3.98933">
        <ele>1087.4</ele>
      </trkpt>
      <trkpt lat="45.46852" lon="3.98907">
        <ele>1087</ele>
        <time>2022-05-17T10:40:47Z</time>
      </trkpt>
      <trkpt lat="45.46823" lon="3.98883">
        <ele>1086</ele>
        <time>2022-05-17T10:40:55Z</time>
      </trkpt>
      <trkpt lat="45.46777" lon="3.98846">
        <ele>1085</ele>
        <time>2022-05-17T10:41:07Z</time>
      </trkpt>
      <trkpt lat="45.4673" lon="3.98801">
        <ele>1086</ele>
        <time>2022-05-17T10:41:21Z</time>
      </trkpt>
      <trkpt lat="45.46772" lon="3.98755">
        <ele>1083</ele>
        <time>2022-05-17T10:41:32Z</time>
      </trkpt>
      <trkpt lat="45.46809" lon="3.98731">
        <ele>1082.4</ele>
        <time>2022-05-17T10:41:42Z</time>
      </trkpt>
      <trkpt lat="45.46862" lon="3.98688">
        <ele>1087</ele>
        <time>2022-05-17T10:41:56Z</time>
      </trkpt>
      <trkpt lat="45.46927" lon="3.98671">
        <ele>1087</ele>
        <time>2022-05-17T10:42:12Z</time>
      </trkpt>
      <trkpt lat="45.46959" lon="3.98649">
        <ele>1086.3</ele>
      </trkpt>
      <trkpt lat="45.47006" lon="3.98644">
        <ele>1086</ele>
        <time>2022-05-17T10:42:30Z</time>
      </trkpt>
      <trkpt lat="45.47042" lon="3.98633">
        <ele>1086.1</ele>
      </trkpt>
      <trkpt lat="45.47076" lon="3.98614">
        <ele>1088</ele>
        <time>2022-05-17T10:42:48Z</time>
      </trkpt>
      <trkpt lat="45.47105" lon="3.986">
        <ele>1088</ele>
        <time>2022-05-17T10:42:55Z</time>
      </trkpt>
      <trkpt lat="45.47156" lon="3.98607">
        <ele>1086.7</ele>
      </trkpt>
      <trkpt lat="45.47218" lon="3.9865">
        <ele>1089</ele>
        <time>2022-05-17T10:43:23Z</time>
      </trkpt>
      <trkpt lat="45.47274" lon="3.98708">
        <ele>1095</ele>
        <time>2022-05-17T10:43:39Z</time>
      </trkpt>
      <trkpt lat="45.47308" lon="3.98744">
        <ele>1101.4</ele>
      </trkpt>
      <trkpt lat="45.47344" lon="3.98771">
        <ele>1103</ele>
        <time>2022-05-17T10:43:59Z</time>
      </trkpt>
      <trkpt lat="45.47402" lon="3.98817">
        <ele>1109</ele>
        <time>2022-05-17T10:44:14Z</time>
      </trkpt>
      <trkpt lat="45.47446" lon="3.98837">
        <ele>1112.9</ele>
      </trkpt>
      <trkpt lat="45.47464" lon="3.98852">
        <ele>1114</ele>
        <time>2022-05-17T10:44:29Z</time>
      </trkpt>
      <trkpt lat="45.47506" lon="3.98878">
        <ele>1121.9</ele>
        <time>2022-05-17T10:44:42Z</time>
      </trkpt>
      <trkpt lat="45.47556" lon="3.98861">
        <ele>1126</ele>
        <time>2022-05-17T10:44:52Z</time>
      </trkpt>
      <trkpt lat="45.47562" lon="3.98908">
        <ele>1128</ele>
        <time>2022-05-17T10:45:00Z</time>
      </trkpt>
      <trkpt lat="45.47562" lon="3.9895">
        <ele>1129</ele>
        <time>2022-05-17T10:45:07Z</time>
      </trkpt>
      <trkpt lat="45.47565" lon="3.98994">
        <ele>1130</ele>
        <time>2022-05-17T10:45:14Z</time>
      </trkpt>
      <trkpt lat="45.47561" lon="3.98996">
        <ele>1131.4</ele>
      </trkpt>
      <trkpt lat="45.4756" lon="3.9902">
        <ele>1130.9</ele>
        <time>2022-05-17T10:45:18Z</time>
      </trkpt>
      <trkpt lat="45.47556" lon="3.99056">
        <ele>1130.1</ele>
        <time>2022-05-17T10:45:26Z</time>
      </trkpt>
      <trkpt lat="45.47559" lon="3.99077">
        <ele>1130.3</ele>
      </trkpt>
      <trkpt lat="45.47574" lon="3.99111">
        <ele>1129.7</ele>
        <time>2022-05-17T10:45:32Z</time>
      </trkpt>
      <trkpt lat="45.47612" lon="3.99085">
        <ele>1132</ele>
        <time>2022-05-17T10:45:41Z</time>
      </trkpt>
      <trkpt lat="45.47634" lon="3.99085">
        <ele>1132.8</ele>
      </trkpt>
      <trkpt lat="45.47701" lon="3.99081">
        <ele>1139.6</ele>
        <time>2022-05-17T10:45:50Z</time>
      </trkpt>
      <trkpt lat="45.47773" lon="3.99136">
        <ele>1141.6</ele>
        <time>2022-05-17T10:46:15Z</time>
      </trkpt>
      <trkpt lat="45.47778" lon="3.99186">
        <ele>1142</ele>
        <time>2022-05-17T10:46:28Z</time>
      </trkpt>
      <trkpt lat="45.47782" lon="3.9922">
        <ele>1142.3</ele>
        <time>2022-05-17T10:46:42Z</time>
      </trkpt>
      <trkpt lat="45.47801" lon="3.99282">
        <ele>1142.5</ele>
      </trkpt>
      <trkpt lat="45.47815" lon="3.99351">
        <ele>1141.4</ele>
        <time>2022-05-17T10:47:01Z</time>
      </trkpt>
      <trkpt lat="45.47838" lon="3.99454">
        <ele>1142.2</ele>
      </trkpt>
      <trkpt lat="45.4786" lon="3.99495">
        <ele>1143</ele>
        <time>2022-05-17T10:47:20Z</time>
      </trkpt>
      <trkpt lat="45.47888" lon="3.99525">
        <ele>1144</ele>
        <time>2022-05-17T10:47:27Z</time>
      </trkpt>
      <trkpt lat="45.47926" lon="3.99555">
        <ele>1145</ele>
        <time>2022-05-17T10:47:34Z</time>
      </trkpt>
      <trkpt lat="45.47928" lon="3.99509">
        <ele>1145.7</ele>
        <time>2022-05-17T10:47:40Z</time>
      </trkpt>
      <trkpt lat="45.47936" lon="3.99434">
        <ele>1146</ele>
        <time>2022-05-17T10:47:52Z</time>
      </trkpt>
      <trkpt lat="45.47937" lon="3.99388">
        <ele>1150</ele>
      </trkpt>
      <trkpt lat="45.47932" lon="3.99348">
        <ele>1150</ele>
        <time>2022-05-17T10:48:07Z</time>
      </trkpt>
      <trkpt lat="45.47924" lon="3.99281">
        <ele>1147</ele>
        <time>2022-05-17T10:48:18Z</time>
      </trkpt>
      <trkpt lat="45.4792" lon="3.99192">
        <ele>1148</ele>
        <time>2022-05-17T10:48:32Z</time>
      </trkpt>
      <trkpt lat="45.47942" lon="3.9903">
        <ele>1150.9</ele>
        <time>2022-05-17T10:49:01Z</time>
      </trkpt>
      <trkpt lat="45.4799" lon="3.98926">
        <ele>1156</ele>
        <time>2022-05-17T10:49:20Z</time>
      </trkpt>
      <trkpt lat="45.48039" lon="3.98828">
        <ele>1153.3</ele>
        <time>2022-05-17T10:49:40Z</time>
      </trkpt>
      <trkpt lat="45.48078" lon="3.98759">
        <ele>1156</ele>
        <time>2022-05-17T10:49:54Z</time>
      </trkpt>
      <trkpt lat="45.48125" lon="3.98716">
        <ele>1151.6</ele>
      </trkpt>
      <trkpt lat="45.48143" lon="3.98683">
        <ele>1151.1</ele>
      </trkpt>
      <trkpt lat="45.48157" lon="3.98641">
        <ele>1152</ele>
        <time>2022-05-17T10:50:21Z</time>
      </trkpt>
      <trkpt lat="45.4821" lon="3.98489">
        <ele>1152</ele>
        <time>2022-05-17T10:50:49Z</time>
      </trkpt>
      <trkpt lat="45.48258" lon="3.98375">
        <ele>1151</ele>
        <time>2022-05-17T10:51:11Z</time>
      </trkpt>
      <trkpt lat="45.48306" lon="3.98312">
        <ele>1147</ele>
      </trkpt>
      <trkpt lat="45.48307" lon="3.98259">
        <ele>1146.1</ele>
      </trkpt>
      <trkpt lat="45.48314" lon="3.98217">
        <ele>1146.2</ele>
        <time>2022-05-17T10:51:40Z</time>
      </trkpt>
      <trkpt lat="45.48327" lon="3.98183">
        <ele>1146.8</ele>
      </trkpt>
      <trkpt lat="45.48394" lon="3.9809">
        <ele>1149.6</ele>
      </trkpt>
      <trkpt lat="45.48443" lon="3.97993">
        <ele>1149.7</ele>
      </trkpt>
      <trkpt lat="45.48503" lon="3.97914">
        <ele>1149</ele>
        <time>2022-05-17T10:52:46Z</time>
      </trkpt>
      <trkpt lat="45.48643" lon="3.97798">
        <ele>1140.6</ele>
      </trkpt>
      <trkpt lat="45.48652" lon="3.97792">
        <ele>1139.8</ele>
        <time>2022-05-17T10:53:24Z</time>
      </trkpt>
      <trkpt lat="45.48711" lon="3.97738">
        <ele>1135.2</ele>
        <time>2022-05-17T10:53:45Z</time>
      </trkpt>
      <trkpt lat="45.4872" lon="3.97802">
        <ele>1136.2</ele>
      </trkpt>
      <trkpt lat="45.48729" lon="3.9792">
        <ele>1138.4</ele>
      </trkpt>
      <trkpt lat="45.48731" lon="3.97959">
        <ele>1139.9</ele>
      </trkpt>
      <trkpt lat="45.48728" lon="3.98008">
        <ele>1141.4</ele>
      </trkpt>
      <trkpt lat="45.4873" lon="3.98066">
        <ele>1141.8</ele>
      </trkpt>
      <trkpt lat="45.48737" lon="3.98121">
        <ele>1142.3</ele>
        <time>2022-05-17T10:54:50Z</time>
      </trkpt>
      <trkpt lat="45.48744" lon="3.98177">
        <ele>1142.7</ele>
      </trkpt>
      <trkpt lat="45.48742" lon="3.98261">
        <ele>1143.3</ele>
        <time>2022-05-17T10:55:14Z</time>
      </trkpt>
      <trkpt lat="45.48789" lon="3.98319">
        <ele>1143.6</ele>
      </trkpt>
      <trkpt lat="45.48842" lon="3.98331">
        <ele>1145.7</ele>
      </trkpt>
      <trkpt lat="45.48913" lon="3.98337">
        <ele>1148.1</ele>
      </trkpt>
      <trkpt lat="45.48948" lon="3.98324">
        <ele>1156</ele>
        <time>2022-05-17T10:56:01Z</time>
      </trkpt>
      <trkpt lat="45.4904" lon="3.98315">
        <ele>1150.1</ele>
      </trkpt>
      <trkpt lat="45.49058" lon="3.98318">
        <ele>1150.9</ele>
      </trkpt>
      <trkpt lat="45.49082" lon="3.98341">
        <ele>1152.5</ele>
        <time>2022-05-17T10:56:33Z</time>
      </trkpt>
      <trkpt lat="45.49124" lon="3.98387">
        <ele>1155.8</ele>
      </trkpt>
      <trkpt lat="45.49127" lon="3.98403">
        <ele>1157.5</ele>
      </trkpt>
      <trkpt lat="45.49168" lon="3.9845">
        <ele>1162.9</ele>
        <time>2022-05-17T10:56:59Z</time>
      </trkpt>
      <trkpt lat="45.492" lon="3.98486">
        <ele>1167.7</ele>
      </trkpt>
      <trkpt lat="45.49253" lon="3.98513">
        <ele>1170.9</ele>
      </trkpt>
      <trkpt lat="45.49274" lon="3.98532">
        <ele>1172.2</ele>
      </trkpt>
      <trkpt lat="45.49292" lon="3.9854">
        <ele>1171.9</ele>
      </trkpt>
      <trkpt lat="45.49348" lon="3.98625">
        <ele>1174.5</ele>
        <time>2022-05-17T10:57:49Z</time>
      </trkpt>
      <trkpt lat="45.49422" lon="3.98565">
        <ele>1170.8</ele>
      </trkpt>
      <trkpt lat="45.49467" lon="3.98508">
        <ele>1176</ele>
        <time>2022-05-17T10:58:27Z</time>
      </trkpt>
      <trkpt lat="45.49495" lon="3.98481">
        <ele>1167.6</ele>
      </trkpt>
      <trkpt lat="45.4951" lon="3.9847">
        <ele>1167</ele>
      </trkpt>
      <trkpt lat="45.49592" lon="3.98467">
        <ele>1167.5</ele>
      </trkpt>
      <trkpt lat="45.49638" lon="3.98457">
        <ele>1166.3</ele>
        <time>2022-05-17T10:59:09Z</time>
      </trkpt>
      <trkpt lat="45.4973" lon="3.984">
        <ele>1160.9</ele>
      </trkpt>
      <trkpt lat="45.49802" lon="3.98368">
        <ele>1158.5</ele>
      </trkpt>
      <trkpt lat="45.4982" lon="3.98337">
        <ele>1156.2</ele>
      </trkpt>
      <trkpt lat="45.49824" lon="3.98297">
        <ele>1154.6</ele>
        <time>2022-05-17T10:59:55Z</time>
      </trkpt>
      <trkpt lat="45.49834" lon="3.98245">
        <ele>1151.6</ele>
      </trkpt>
      <trkpt lat="45.49843" lon="3.98222">
        <ele>1150</ele>
      </trkpt>
      <trkpt lat="45.49878" lon="3.98192">
        <ele>1155</ele>
        <time>2022-05-17T11:00:23Z</time>
      </trkpt>
      <trkpt lat="45.49946" lon="3.98141">
        <ele>1143.1</ele>
      </trkpt>
      <trkpt lat="45.49976" lon="3.98126">
        <ele>1140.7</ele>
      </trkpt>
      <trkpt lat="45.49997" lon="3.98133">
        <ele>1139.8</ele>
        <time>2022-05-17T11:00:56Z</time>
      </trkpt>
      <trkpt lat="45.50009" lon="3.98175">
        <ele>1141.6</ele>
      </trkpt>
      <trkpt lat="45.5007" lon="3.98318">
        <ele>1136.7</ele>
      </trkpt>
      <trkpt lat="45.50087" lon="3.98367">
        <ele>1133.3</ele>
        <time>2022-05-17T11:01:39Z</time>
      </trkpt>
      <trkpt lat="45.50092" lon="3.98429">
        <ele>1131</ele>
      </trkpt>
      <trkpt lat="45.50084" lon="3.98512">
        <ele>1128</ele>
      </trkpt>
      <trkpt lat="45.50083" lon="3.98577">
        <ele>1123.5</ele>
      </trkpt>
      <trkpt lat="45.50067" lon="3.98627">
        <ele>1122.4</ele>
        <time>2022-05-17T11:02:29Z</time>
      </trkpt>
      <trkpt lat="45.50066" lon="3.98658">
        <ele>1120.6</ele>
      </trkpt>
      <trkpt lat="45.50084" lon="3.98782">
        <ele>1110.7</ele>
      </trkpt>
      <trkpt lat="45.50089" lon="3.9882">
        <ele>1108.3</ele>
        <time>2022-05-17T11:02:58Z</time>
      </trkpt>
      <trkpt lat="45.50087" lon="3.98844">
        <ele>1106.5</ele>
      </trkpt>
      <trkpt lat="45.50056" lon="3.98916">
        <ele>1099.1</ele>
      </trkpt>
      <trkpt lat="45.50018" lon="3.98965">
        <ele>1094</ele>
        <time>2022-05-17T11:03:26Z</time>
      </trkpt>
      <trkpt lat="45.49986" lon="3.99006">
        <ele>1080</ele>
      </trkpt>
      <trkpt lat="45.49967" lon="3.99056">
        <ele>1072.2</ele>
      </trkpt>
      <trkpt lat="45.49964" lon="3.99067">
        <ele>1070.9</ele>
      </trkpt>
      <trkpt lat="45.49937" lon="3.99115">
        <ele>1066</ele>
        <time>2022-05-17T11:03:54Z</time>
      </trkpt>
      <trkpt lat="45.49935" lon="3.99164">
        <ele>1061.3</ele>
      </trkpt>
      <trkpt lat="45.49936" lon="3.99219">
        <ele>1055.1</ele>
      </trkpt>
      <trkpt lat="45.49933" lon="3.99257">
        <ele>1051.7</ele>
      </trkpt>
      <trkpt lat="45.49933" lon="3.99283">
        <ele>1050.1</ele>
        <time>2022-05-17T11:04:23Z</time>
      </trkpt>
      <trkpt lat="45.49972" lon="3.99358">
        <ele>1038.3</ele>
      </trkpt>
      <trkpt lat="45.49995" lon="3.99424">
        <ele>1030</ele>
      </trkpt>
      <trkpt lat="45.50001" lon="3.99435">
        <ele>1029.8</ele>
      </trkpt>
      <trkpt lat="45.50009" lon="3.99466">
        <ele>1026.6</ele>
      </trkpt>
      <trkpt lat="45.50052" lon="3.99535">
        <ele>1017.6</ele>
        <time>2022-05-17T11:05:12Z</time>
      </trkpt>
      <trkpt lat="45.50069" lon="3.99564">
        <ele>1015.3</ele>
      </trkpt>
      <trkpt lat="45.50073" lon="3.99596">
        <ele>1013.9</ele>
      </trkpt>
      <trkpt lat="45.50071" lon="3.9964">
        <ele>1010.1</ele>
      </trkpt>
      <trkpt lat="45.50089" lon="3.99679">
        <ele>1006.6</ele>
      </trkpt>
      <trkpt lat="45.50111" lon="3.99714">
        <ele>1000.7</ele>
        <time>2022-05-17T11:05:44Z</time>
      </trkpt>
      <trkpt lat="45.50152" lon="3.99821">
        <ele>986.1</ele>
      </trkpt>
      <trkpt lat="45.50155" lon="3.99871">
        <ele>981.9</ele>
        <time>2022-05-17T11:06:13Z</time>
      </trkpt>
      <trkpt lat="45.50158" lon="3.999">
        <ele>979.8</ele>
      </trkpt>
      <trkpt lat="45.50184" lon="3.99961">
        <ele>971.5</ele>
      </trkpt>
      <trkpt lat="45.50193" lon="4.00008">
        <ele>966.6</ele>
      </trkpt>
      <trkpt lat="45.50207" lon="4.00061">
        <ele>960.9</ele>
      </trkpt>
      <trkpt lat="45.50221" lon="4.00112">
        <ele>955.2</ele>
        <time>2022-05-17T11:06:55Z</time>
      </trkpt>
      <trkpt lat="45.50197" lon="4.0015">
        <ele>957</ele>
      </trkpt>
      <trkpt lat="45.50163" lon="4.00186">
        <ele>958.1</ele>
      </trkpt>
      <trkpt lat="45.50138" lon="4.002">
        <ele>959.5</ele>
      </trkpt>
      <trkpt lat="45.50089" lon="4.00218">
        <ele>959</ele>
        <time>2022-05-17T11:07:34Z</time>
      </trkpt>
      <trkpt lat="45.50064" lon="4.00219">
        <ele>959.5</ele>
      </trkpt>
      <trkpt lat="45.5" lon="4.00172">
        <ele>961.6</ele>
      </trkpt>
      <trkpt lat="45.49932" lon="4.00166">
        <ele>958.5</ele>
        <time>2022-05-17T11:08:13Z</time>
      </trkpt>
      <trkpt lat="45.49927" lon="4.00109">
        <ele>961</ele>
        <time>2022-05-17T11:08:23Z</time>
      </trkpt>
      <trkpt lat="45.49888" lon="4.00135">
        <ele>965.2</ele>
      </trkpt>
      <trkpt lat="45.49858" lon="4.00176">
        <ele>968.4</ele>
      </trkpt>
      <trkpt lat="45.4984" lon="4.00196">
        <ele>969.8</ele>
      </trkpt>
      <trkpt lat="45.4981" lon="4.00208">
        <ele>974.2</ele>
      </trkpt>
      <trkpt lat="45.49792" lon="4.00233">
        <ele>989</ele>
        <time>2022-05-17T11:09:01Z</time>
      </trkpt>
      <trkpt lat="45.49784" lon="4.00249">
        <ele>975.1</ele>
      </trkpt>
      <trkpt lat="45.49781" lon="4.00284">
        <ele>975.5</ele>
      </trkpt>
      <trkpt lat="45.49765" lon="4.00316">
        <ele>979.1</ele>
      </trkpt>
      <trkpt lat="45.49763" lon="4.0033">
        <ele>991</ele>
        <time>2022-05-17T11:09:19Z</time>
      </trkpt>
      <trkpt lat="45.49771" lon="4.00343">
        <ele>979.5</ele>
      </trkpt>
      <trkpt lat="45.49796" lon="4.0035">
        <ele>979.4</ele>
      </trkpt>
      <trkpt lat="45.49821" lon="4.00424">
        <ele>988.2</ele>
        <time>2022-05-17T11:09:34Z</time>
      </trkpt>
      <trkpt lat="45.49777" lon="4.00509">
        <ele>999.3</ele>
        <time>2022-05-17T11:09:57Z</time>
      </trkpt>
      <trkpt lat="45.49749" lon="4.00545">
        <ele>1004.9</ele>
      </trkpt>
      <trkpt lat="45.49727" lon="4.00557">
        <ele>1006.5</ele>
      </trkpt>
      <trkpt lat="45.49733" lon="4.00585">
        <ele>1012</ele>
      </trkpt>
      <trkpt lat="45.49781" lon="4.00624">
        <ele>1017.2</ele>
      </trkpt>
      <trkpt lat="45.49805" lon="4.00664">
        <ele>1018.8</ele>
      </trkpt>
      <trkpt lat="45.49803" lon="4.00713">
        <ele>1022.6</ele>
        <time>2022-05-17T11:10:35Z</time>
      </trkpt>
      <trkpt lat="45.49825" lon="4.00836">
        <ele>1025.1</ele>
      </trkpt>
      <trkpt lat="45.49835" lon="4.00921">
        <ele>1029</ele>
        <time>2022-05-17T11:11:04Z</time>
      </trkpt>
      <trkpt lat="45.49838" lon="4.00994">
        <ele>1031.2</ele>
      </trkpt>
      <trkpt lat="45.49806" lon="4.0108">
        <ele>1032</ele>
        <time>2022-05-17T11:11:31Z</time>
      </trkpt>
      <trkpt lat="45.49787" lon="4.01112">
        <ele>1034.9</ele>
      </trkpt>
      <trkpt lat="45.49703" lon="4.01157">
        <ele>1032</ele>
        <time>2022-05-17T11:11:59Z</time>
      </trkpt>
      <trkpt lat="45.49634" lon="4.01128">
        <ele>1034</ele>
        <time>2022-05-17T11:12:15Z</time>
      </trkpt>
      <trkpt lat="45.49582" lon="4.01098">
        <ele>1035</ele>
        <time>2022-05-17T11:12:29Z</time>
      </trkpt>
      <trkpt lat="45.49567" lon="4.01083">
        <ele>1037.7</ele>
      </trkpt>
      <trkpt lat="45.49555" lon="4.0104">
        <ele>1042.7</ele>
      </trkpt>
      <trkpt lat="45.49517" lon="4.00995">
        <ele>1046.3</ele>
        <time>2022-05-17T11:12:48Z</time>
      </trkpt>
      <trkpt lat="45.49476" lon="4.0098">
        <ele>1046.3</ele>
        <time>2022-05-17T11:13:03Z</time>
      </trkpt>
      <trkpt lat="45.4939" lon="4.00965">
        <ele>1045</ele>
        <time>2022-05-17T11:13:22Z</time>
      </trkpt>
      <trkpt lat="45.4935" lon="4.00936">
        <ele>1047</ele>
        <time>2022-05-17T11:13:33Z</time>
      </trkpt>
      <trkpt lat="45.49293" lon="4.00902">
        <ele>1053</ele>
        <time>2022-05-17T11:13:47Z</time>
      </trkpt>
      <trkpt lat="45.49255" lon="4.00902">
        <ele>1057</ele>
        <time>2022-05-17T11:13:56Z</time>
      </trkpt>
      <trkpt lat="45.49203" lon="4.00836">
        <ele>1065.1</ele>
      </trkpt>
      <trkpt lat="45.49174" lon="4.00816">
        <ele>1075</ele>
        <time>2022-05-17T11:14:20Z</time>
      </trkpt>
      <trkpt lat="45.49181" lon="4.00819">
        <ele>1068.5</ele>
      </trkpt>
      <trkpt lat="45.49162" lon="4.00838">
        <ele>1070.8</ele>
      </trkpt>
      <trkpt lat="45.49097" lon="4.00866">
        <ele>1081</ele>
        <time>2022-05-17T11:14:42Z</time>
      </trkpt>
      <trkpt lat="45.49076" lon="4.00881">
        <ele>1084.9</ele>
      </trkpt>
      <trkpt lat="45.4905" lon="4.00886">
        <ele>1090.1</ele>
      </trkpt>
      <trkpt lat="45.48955" lon="4.00801">
        <ele>1105.6</ele>
        <time>2022-05-17T11:15:13Z</time>
      </trkpt>
      <trkpt lat="45.48913" lon="4.00796">
        <ele>1110.2</ele>
      </trkpt>
      <trkpt lat="45.48839" lon="4.00805">
        <ele>1117</ele>
        <time>2022-05-17T11:15:43Z</time>
      </trkpt>
      <trkpt lat="45.48755" lon="4.00793">
        <ele>1114.2</ele>
      </trkpt>
      <trkpt lat="45.48679" lon="4.00826">
        <ele>1115.6</ele>
        <time>2022-05-17T11:16:20Z</time>
      </trkpt>
      <trkpt lat="45.48588" lon="4.00851">
        <ele>1122</ele>
        <time>2022-05-17T11:16:42Z</time>
      </trkpt>
      <trkpt lat="45.48551" lon="4.0086">
        <ele>1113.6</ele>
      </trkpt>
      <trkpt lat="45.48493" lon="4.00824">
        <ele>1111.8</ele>
        <time>2022-05-17T11:16:59Z</time>
      </trkpt>
      <trkpt lat="45.48455" lon="4.00847">
        <ele>1114.1</ele>
      </trkpt>
      <trkpt lat="45.48426" lon="4.00892">
        <ele>1122</ele>
        <time>2022-05-17T11:17:23Z</time>
      </trkpt>
      <trkpt lat="45.4836" lon="4.00982">
        <ele>1119.7</ele>
      </trkpt>
      <trkpt lat="45.48327" lon="4.01021">
        <ele>1116.6</ele>
      </trkpt>
      <trkpt lat="45.4829" lon="4.01035">
        <ele>1129</ele>
        <time>2022-05-17T11:18:02Z</time>
      </trkpt>
      <trkpt lat="45.48239" lon="4.01066">
        <ele>1119.6</ele>
      </trkpt>
      <trkpt lat="45.48142" lon="4.01138">
        <ele>1123.8</ele>
        <time>2022-05-17T11:18:39Z</time>
      </trkpt>
      <trkpt lat="45.4809" lon="4.01166">
        <ele>1121.3</ele>
      </trkpt>
      <trkpt lat="45.48053" lon="4.01179">
        <ele>1117.2</ele>
      </trkpt>
      <trkpt lat="45.47983" lon="4.01253">
        <ele>1111.3</ele>
      </trkpt>
      <trkpt lat="45.47932" lon="4.0128">
        <ele>1109</ele>
        <time>2022-05-17T11:19:35Z</time>
      </trkpt>
      <trkpt lat="45.47899" lon="4.01291">
        <ele>1106</ele>
      </trkpt>
      <trkpt lat="45.47867" lon="4.01322">
        <ele>1102.6</ele>
      </trkpt>
      <trkpt lat="45.47848" lon="4.01349">
        <ele>1101.2</ele>
      </trkpt>
      <trkpt lat="45.47826" lon="4.01353">
        <ele>1098.7</ele>
        <time>2022-05-17T11:20:00Z</time>
      </trkpt>
      <trkpt lat="45.47739" lon="4.01353">
        <ele>1088.7</ele>
      </trkpt>
      <trkpt lat="45.47711" lon="4.01373">
        <ele>1087.2</ele>
        <time>2022-05-17T11:20:29Z</time>
      </trkpt>
      <trkpt lat="45.47683" lon="4.01423">
        <ele>1086.2</ele>
      </trkpt>
      <trkpt lat="45.47626" lon="4.015">
        <ele>1084</ele>
        <time>2022-05-17T11:20:59Z</time>
      </trkpt>
      <trkpt lat="45.47526" lon="4.01548">
        <ele>1076.4</ele>
      </trkpt>
      <trkpt lat="45.4749" lon="4.01582">
        <ele>1082</ele>
        <time>2022-05-17T11:21:33Z</time>
      </trkpt>
      <trkpt lat="45.47429" lon="4.01745">
        <ele>1080</ele>
        <time>2022-05-17T11:22:04Z</time>
      </trkpt>
      <trkpt lat="45.47407" lon="4.01909">
        <ele>1066</ele>
        <time>2022-05-17T11:22:31Z</time>
      </trkpt>
      <trkpt lat="45.4738" lon="4.0199">
        <ele>1060.1</ele>
      </trkpt>
      <trkpt lat="45.47345" lon="4.02048">
        <ele>1054.6</ele>
        <time>2022-05-17T11:23:00Z</time>
      </trkpt>
      <trkpt lat="45.47334" lon="4.02079">
        <ele>1049.6</ele>
      </trkpt>
      <trkpt lat="45.47313" lon="4.02104">
        <ele>1044.9</ele>
      </trkpt>
      <trkpt lat="45.47313" lon="4.02129">
        <ele>1043.3</ele>
        <time>2022-05-17T11:23:14Z</time>
      </trkpt>
      <trkpt lat="45.47307" lon="4.02146">
        <ele>1042.7</ele>
      </trkpt>
      <trkpt lat="45.47245" lon="4.02131">
        <ele>1045.5</ele>
      </trkpt>
      <trkpt lat="45.47133" lon="4.02125">
        <ele>1055</ele>
        <time>2022-05-17T11:23:56Z</time>
      </trkpt>
      <trkpt lat="45.47106" lon="4.02177">
        <ele>1053.9</ele>
      </trkpt>
      <trkpt lat="45.4707" lon="4.02209">
        <ele>1065</ele>
        <time>2022-05-17T11:24:14Z</time>
      </trkpt>
      <trkpt lat="45.46995" lon="4.02196">
        <ele>1067.3</ele>
      </trkpt>
      <trkpt lat="45.46981" lon="4.02157">
        <ele>1071.4</ele>
        <time>2022-05-17T11:24:36Z</time>
      </trkpt>
      <trkpt lat="45.46985" lon="4.02094">
        <ele>1077.8</ele>
      </trkpt>
      <trkpt lat="45.4696" lon="4.0205">
        <ele>1084.6</ele>
        <time>2022-05-17T11:24:52Z</time>
      </trkpt>
      <trkpt lat="45.46886" lon="4.0196">
        <ele>1095.8</ele>
        <time>2022-05-17T11:25:15Z</time>
      </trkpt>
      <trkpt lat="45.46826" lon="4.01951">
        <ele>1100.7</ele>
      </trkpt>
      <trkpt lat="45.46764" lon="4.01973">
        <ele>1103.4</ele>
        <time>2022-05-17T11:25:45Z</time>
      </trkpt>
      <trkpt lat="45.46719" lon="4.02016">
        <ele>1102.9</ele>
      </trkpt>
      <trkpt lat="45.46666" lon="4.02017">
        <ele>1104.5</ele>
      </trkpt>
      <trkpt lat="45.46612" lon="4.01995">
        <ele>1103</ele>
        <time>2022-05-17T11:26:20Z</time>
      </trkpt>
      <trkpt lat="45.46594" lon="4.01961">
        <ele>1101.3</ele>
      </trkpt>
      <trkpt lat="45.46593" lon="4.01854">
        <ele>1102.2</ele>
      </trkpt>
      <trkpt lat="45.46582" lon="4.01768">
        <ele>1102.3</ele>
        <time>2022-05-17T11:26:58Z</time>
      </trkpt>
      <trkpt lat="45.4656" lon="4.0159">
        <ele>1106.9</ele>
      </trkpt>
      <trkpt lat="45.46544" lon="4.0146">
        <ele>1119.6</ele>
      </trkpt>
      <trkpt lat="45.4653" lon="4.01414">
        <ele>1127</ele>
        <time>2022-05-17T11:27:57Z</time>
      </trkpt>
      <trkpt lat="45.46564" lon="4.01405">
        <ele>1127</ele>
        <time>2022-05-17T11:28:05Z</time>
      </trkpt>
      <trkpt lat="45.46596" lon="4.01389">
        <ele>1124.4</ele>
        <time>2022-05-17T11:28:14Z</time>
      </trkpt>
      <trkpt lat="45.46605" lon="4.01366">
        <ele>1127.3</ele>
        <time>2022-05-17T11:28:25Z</time>
      </trkpt>
      <trkpt lat="45.46644" lon="4.01353">
        <ele>1131</ele>
        <time>2022-05-17T11:28:31Z</time>
      </trkpt>
      <trkpt lat="45.46677" lon="4.01299">
        <ele>1137.2</ele>
        <time>2022-05-17T11:28:38Z</time>
      </trkpt>
      <trkpt lat="45.46698" lon="4.01264">
        <ele>1140.6</ele>
        <time>2022-05-17T11:28:46Z</time>
      </trkpt>
      <trkpt lat="45.46728" lon="4.01229">
        <ele>1148</ele>
        <time>2022-05-17T11:28:54Z</time>
      </trkpt>
      <trkpt lat="45.46761" lon="4.01171">
        <ele>1152</ele>
        <time>2022-05-17T11:29:07Z</time>
      </trkpt>
      <trkpt lat="45.468" lon="4.01122">
        <ele>1153</ele>
        <time>2022-05-17T11:29:19Z</time>
      </trkpt>
      <trkpt lat="45.4683" lon="4.01095">
        <ele>1151.5</ele>
      </trkpt>
      <trkpt lat="45.46847" lon="4.01086">
        <ele>1151.9</ele>
        <time>2022-05-17T11:29:32Z</time>
      </trkpt>
      <trkpt lat="45.46874" lon="4.01026">
        <ele>1153</ele>
        <time>2022-05-17T11:29:42Z</time>
      </trkpt>
      <trkpt lat="45.46902" lon="4.00975">
        <ele>1154.5</ele>
        <time>2022-05-17T11:29:53Z</time>
      </trkpt>
      <trkpt lat="45.46981" lon="4.00845">
        <ele>1159.3</ele>
        <time>2022-05-17T11:30:16Z</time>
      </trkpt>
      <trkpt lat="45.4701" lon="4.00798">
        <ele>1161</ele>
        <time>2022-05-17T11:30:31Z</time>
      </trkpt>
      <trkpt lat="45.47031" lon="4.00781">
        <ele>1161.6</ele>
        <time>2022-05-17T11:30:35Z</time>
      </trkpt>
      <trkpt lat="45.47073" lon="4.00691">
        <ele>1166.3</ele>
        <time>2022-05-17T11:30:56Z</time>
      </trkpt>
      <trkpt lat="45.47143" lon="4.00614">
        <ele>1169.5</ele>
      </trkpt>
      <trkpt lat="45.47194" lon="4.00559">
        <ele>1168.9</ele>
      </trkpt>
      <trkpt lat="45.47221" lon="4.00547">
        <ele>1169</ele>
        <time>2022-05-17T11:31:39Z</time>
      </trkpt>
      <trkpt lat="45.4725" lon="4.00518">
        <ele>1169</ele>
      </trkpt>
      <trkpt lat="45.47313" lon="4.00447">
        <ele>1167.1</ele>
        <time>2022-05-17T11:32:07Z</time>
      </trkpt>
      <trkpt lat="45.47393" lon="4.00393">
        <ele>1164.1</ele>
      </trkpt>
      <trkpt lat="45.47434" lon="4.00335">
        <ele>1162.7</ele>
        <time>2022-05-17T11:32:37Z</time>
      </trkpt>
      <trkpt lat="45.47367" lon="4.00327">
        <ele>1160.6</ele>
        <time>2022-05-17T11:32:49Z</time>
      </trkpt>
      <trkpt lat="45.47347" lon="4.00251">
        <ele>1160</ele>
        <time>2022-05-17T11:33:01Z</time>
      </trkpt>
      <trkpt lat="45.47378" lon="4.00088">
        <ele>1145</ele>
        <time>2022-05-17T11:33:29Z</time>
      </trkpt>
      <trkpt lat="45.4745" lon="3.99985">
        <ele>1139</ele>
        <time>2022-05-17T11:33:53Z</time>
      </trkpt>
      <trkpt lat="45.47558" lon="3.99873">
        <ele>1140</ele>
        <time>2022-05-17T11:34:24Z</time>
      </trkpt>
      <trkpt lat="45.47528" lon="3.99728">
        <ele>1135</ele>
        <time>2022-05-17T11:34:49Z</time>
      </trkpt>
      <trkpt lat="45.47528" lon="3.99629">
        <ele>1133</ele>
        <time>2022-05-17T11:35:05Z</time>
      </trkpt>
      <trkpt lat="45.47529" lon="3.99429">
        <ele>1126.1</ele>
        <time>2022-05-17T11:35:31Z</time>
      </trkpt>
      <trkpt lat="45.47468" lon="3.99434">
        <ele>1121.9</ele>
        <time>2022-05-17T11:35:46Z</time>
      </trkpt>
      <trkpt lat="45.4744" lon="3.99534">
        <ele>1124</ele>
        <time>2022-05-17T11:36:05Z</time>
      </trkpt>
      <trkpt lat="45.47356" lon="3.99552">
        <ele>1126</ele>
        <time>2022-05-17T11:36:21Z</time>
      </trkpt>
      <trkpt lat="45.47337" lon="3.9959">
        <ele>1124.7</ele>
      </trkpt>
      <trkpt lat="45.47285" lon="3.99662">
        <ele>1124.2</ele>
        <time>2022-05-17T11:36:45Z</time>
      </trkpt>
      <trkpt lat="45.47245" lon="3.99699">
        <ele>1123</ele>
        <time>2022-05-17T11:37:01Z</time>
      </trkpt>
      <trkpt lat="45.47142" lon="3.99717">
        <ele>1121</ele>
        <time>2022-05-17T11:37:19Z</time>
      </trkpt>
      <trkpt lat="45.47106" lon="3.99736">
        <ele>1120.6</ele>
      </trkpt>
      <trkpt lat="45.47048" lon="3.9972">
        <ele>1115.2</ele>
        <time>2022-05-17T11:37:40Z</time>
      </trkpt>
      <trkpt lat="45.47031" lon="3.9972">
        <ele>1113.4</ele>
      </trkpt>
      <trkpt lat="45.47017" lon="3.99752">
        <ele>1112.3</ele>
      </trkpt>
      <trkpt lat="45.46979" lon="3.99776">
        <ele>1112.1</ele>
      </trkpt>
      <trkpt lat="45.46935" lon="3.99779">
        <ele>1113.1</ele>
        <time>2022-05-17T11:38:09Z</time>
      </trkpt>
      <trkpt lat="45.46887" lon="3.99775">
        <ele>1113.9</ele>
      </trkpt>
      <trkpt lat="45.46838" lon="3.99758">
        <ele>1119</ele>
        <time>2022-05-17T11:38:32Z</time>
      </trkpt>
      <trkpt lat="45.46784" lon="3.99736">
        <ele>1119.1</ele>
      </trkpt>
      <trkpt lat="45.46722" lon="3.99748">
        <ele>1122.8</ele>
        <time>2022-05-17T11:39:02Z</time>
      </trkpt>
      <trkpt lat="45.46696" lon="3.99563">
        <ele>1111</ele>
        <time>2022-05-17T11:39:32Z</time>
      </trkpt>
      <trkpt lat="45.46692" lon="3.99542">
        <ele>1103.6</ele>
      </trkpt>
      <trkpt lat="45.46642" lon="3.99447">
        <ele>1096.3</ele>
      </trkpt>
      <trkpt lat="45.46578" lon="3.99336">
        <ele>1093.4</ele>
        <time>2022-05-17T11:40:19Z</time>
      </trkpt>
      <trkpt lat="45.46557" lon="3.99262">
        <ele>1094.9</ele>
      </trkpt>
      <trkpt lat="45.46551" lon="3.99206">
        <ele>1092.8</ele>
        <time>2022-05-17T11:40:46Z</time>
      </trkpt>
      <trkpt lat="45.46506" lon="3.99116">
        <ele>1083</ele>
        <time>2022-05-17T11:41:00Z</time>
      </trkpt>
      <trkpt lat="45.46452" lon="3.99228">
        <ele>1084</ele>
        <time>2022-05-17T11:41:23Z</time>
      </trkpt>
      <trkpt lat="45.46422" lon="3.99317">
        <ele>1087.9</ele>
        <time>2022-05-17T11:41:44Z</time>
      </trkpt>
      <trkpt lat="45.46416" lon="3.99354">
        <ele>1089.5</ele>
      </trkpt>
      <trkpt lat="45.46368" lon="3.9943">
        <ele>1101</ele>
        <time>2022-05-17T11:42:01Z</time>
      </trkpt>
      <trkpt lat="45.46332" lon="3.99494">
        <ele>1108</ele>
        <time>2022-05-17T11:42:15Z</time>
      </trkpt>
      <trkpt lat="45.46299" lon="3.99537">
        <ele>1110</ele>
        <time>2022-05-17T11:42:25Z</time>
      </trkpt>
      <trkpt lat="45.46226" lon="3.99619">
        <ele>1119</ele>
        <time>2022-05-17T11:42:47Z</time>
      </trkpt>
      <trkpt lat="45.46166" lon="3.99696">
        <ele>1129</ele>
        <time>2022-05-17T11:43:06Z</time>
      </trkpt>
      <trkpt lat="45.46126" lon="3.99748">
        <ele>1132.8</ele>
      </trkpt>
      <trkpt lat="45.46096" lon="3.99763">
        <ele>1133.8</ele>
      </trkpt>
      <trkpt lat="45.46076" lon="3.99721">
        <ele>1134.5</ele>
      </trkpt>
      <trkpt lat="45.46062" lon="3.99699">
        <ele>1134.7</ele>
      </trkpt>
      <trkpt lat="45.45994" lon="3.99656">
        <ele>1137.2</ele>
        <time>2022-05-17T11:43:28Z</time>
      </trkpt>
    </trkseg>
  </trk>
</gpx>